sensor_id;sensor_type;location;lat;lon;timestamp;pressure;altitude;pressure_sealevel;temperature;humidity
38852;BME280;24605;50.092;9.182;2023-05-12T00:01:14;97671.47;;;10.84;100.00
38852;BME280;24605;50.092;9.182;2023-05-12T00:03:41;97673.53;;;10.89;100.00
38852;BME280;24605;50.092;9.182;2023-05-12T00:06:09;97673.81;;;10.79;100.00
38852;BME280;24605;50.092;9.182;2023-05-12T00:08:35;97669.25;;;10.73;100.00
38852;BME280;24605;50.092;9.182;2023-05-12T00:11:02;97675.66;;;10.70;100.00
38852;BME280;24605;50.092;9.182;2023-05-12T00:13:28;97674.88;;;10.70;100.00
38852;BME280;24605;50.092;9.182;2023-05-12T00:15:55;97668.97;;;10.68;100.00
38852;BME280;24605;50.092;9.182;2023-05-12T00:18:23;97671.06;;;10.72;100.00
38852;BME280;24605;50.092;9.182;2023-05-12T00:20:49;97672.25;;;10.85;100.00
38852;BME280;24605;50.092;9.182;2023-05-12T00:23:19;97669.25;;;10.73;100.00
38852;BME280;24605;50.092;9.182;2023-05-12T00:25:46;97672.41;;;10.68;100.00
38852;BME280;24605;50.092;9.182;2023-05-12T00:28:12;97661.00;;;10.61;100.00
38852;BME280;24605;50.092;9.182;2023-05-12T00:30:39;97677.81;;;10.66;100.00
38852;BME280;24605;50.092;9.182;2023-05-12T00:33:05;97666.53;;;10.66;100.00
38852;BME280;24605;50.092;9.182;2023-05-12T00:35:32;97667.69;;;10.63;100.00
38852;BME280;24605;50.092;9.182;2023-05-12T00:37:58;97674.50;;;10.49;100.00
38852;BME280;24605;50.092;9.182;2023-05-12T00:40:26;97670.69;;;10.60;100.00
38852;BME280;24605;50.092;9.182;2023-05-12T00:42:52;97674.22;;;10.68;100.00
38852;BME280;24605;50.092;9.182;2023-05-12T00:45:19;97671.72;;;10.74;100.00
38852;BME280;24605;50.092;9.182;2023-05-12T00:47:46;97668.91;;;10.76;100.00
38852;BME280;24605;50.092;9.182;2023-05-12T00:50:13;97673.88;;;10.71;100.00
38852;BME280;24605;50.092;9.182;2023-05-12T00:52:40;97670.75;;;10.67;100.00
38852;BME280;24605;50.092;9.182;2023-05-12T00:55:08;97666.88;;;10.63;100.00
38852;BME280;24605;50.092;9.182;2023-05-12T00:57:36;97668.66;;;10.62;100.00
38852;BME280;24605;50.092;9.182;2023-05-12T01:00:03;97663.44;;;10.62;100.00
38852;BME280;24605;50.092;9.182;2023-05-12T01:02:31;97660.81;;;10.62;100.00
38852;BME280;24605;50.092;9.182;2023-05-12T01:04:58;97665.06;;;10.40;100.00
38852;BME280;24605;50.092;9.182;2023-05-12T01:07:25;97665.78;;;10.57;100.00
38852;BME280;24605;50.092;9.182;2023-05-12T01:09:55;97669.22;;;10.58;100.00
38852;BME280;24605;50.092;9.182;2023-05-12T01:12:21;97663.41;;;10.47;100.00
38852;BME280;24605;50.092;9.182;2023-05-12T01:14:50;97669.63;;;10.46;100.00
38852;BME280;24605;50.092;9.182;2023-05-12T01:17:19;97668.66;;;10.47;100.00
38852;BME280;24605;50.092;9.182;2023-05-12T01:19:48;97663.03;;;10.50;100.00
38852;BME280;24605;50.092;9.182;2023-05-12T01:22:16;97667.22;;;10.60;100.00
38852;BME280;24605;50.092;9.182;2023-05-12T01:24:45;97670.91;;;10.50;100.00
38852;BME280;24605;50.092;9.182;2023-05-12T01:27:15;97662.97;;;10.59;100.00
38852;BME280;24605;50.092;9.182;2023-05-12T01:29:43;97667.88;;;10.62;100.00
38852;BME280;24605;50.092;9.182;2023-05-12T01:32:11;97670.94;;;10.65;100.00
38852;BME280;24605;50.092;9.182;2023-05-12T01:34:38;97663.88;;;10.51;100.00
38852;BME280;24605;50.092;9.182;2023-05-12T01:37:06;97672.31;;;10.61;100.00
38852;BME280;24605;50.092;9.182;2023-05-12T01:39:33;97669.84;;;10.60;100.00
38852;BME280;24605;50.092;9.182;2023-05-12T01:41:59;97669.38;;;10.56;100.00
38852;BME280;24605;50.092;9.182;2023-05-12T01:44:27;97671.72;;;10.51;100.00
38852;BME280;24605;50.092;9.182;2023-05-12T01:46:53;97673.50;;;10.50;100.00
38852;BME280;24605;50.092;9.182;2023-05-12T01:49:20;97668.47;;;10.49;100.00
38852;BME280;24605;50.092;9.182;2023-05-12T01:51:46;97681.75;;;10.47;100.00
38852;BME280;24605;50.092;9.182;2023-05-12T01:54:13;97676.59;;;10.31;100.00
38852;BME280;24605;50.092;9.182;2023-05-12T01:56:40;97675.00;;;10.53;100.00
38852;BME280;24605;50.092;9.182;2023-05-12T01:59:06;97677.78;;;10.52;100.00
38852;BME280;24605;50.092;9.182;2023-05-12T02:01:34;97684.66;;;10.53;100.00
38852;BME280;24605;50.092;9.182;2023-05-12T02:04:01;97681.91;;;10.46;100.00
38852;BME280;24605;50.092;9.182;2023-05-12T02:06:29;97681.97;;;10.61;100.00
38852;BME280;24605;50.092;9.182;2023-05-12T02:08:55;97681.69;;;10.56;100.00
38852;BME280;24605;50.092;9.182;2023-05-12T02:11:22;97686.56;;;10.59;100.00
38852;BME280;24605;50.092;9.182;2023-05-12T02:13:48;97684.88;;;10.66;100.00
38852;BME280;24605;50.092;9.182;2023-05-12T02:16:15;97682.16;;;10.59;100.00
38852;BME280;24605;50.092;9.182;2023-05-12T02:18:43;97700.69;;;10.58;100.00
38852;BME280;24605;50.092;9.182;2023-05-12T02:21:09;97699.56;;;10.75;100.00
38852;BME280;24605;50.092;9.182;2023-05-12T02:23:36;97698.81;;;10.66;100.00
38852;BME280;24605;50.092;9.182;2023-05-12T02:26:02;97703.78;;;10.76;100.00
38852;BME280;24605;50.092;9.182;2023-05-12T02:28:29;97705.50;;;10.69;100.00
38852;BME280;24605;50.092;9.182;2023-05-12T02:30:55;97701.53;;;10.73;100.00
38852;BME280;24605;50.092;9.182;2023-05-12T02:33:21;97694.44;;;10.97;100.00
38852;BME280;24605;50.092;9.182;2023-05-12T02:35:49;97692.63;;;10.97;100.00
38852;BME280;24605;50.092;9.182;2023-05-12T02:38:16;97707.31;;;10.92;100.00
38852;BME280;24605;50.092;9.182;2023-05-12T02:40:42;97702.66;;;10.94;100.00
38852;BME280;24605;50.092;9.182;2023-05-12T02:43:09;97702.34;;;10.74;100.00
38852;BME280;24605;50.092;9.182;2023-05-12T02:45:36;97696.69;;;10.85;100.00
38852;BME280;24605;50.092;9.182;2023-05-12T02:48:03;97702.72;;;10.71;100.00
38852;BME280;24605;50.092;9.182;2023-05-12T02:50:29;97699.25;;;10.70;100.00
38852;BME280;24605;50.092;9.182;2023-05-12T02:52:57;97701.44;;;10.66;100.00
38852;BME280;24605;50.092;9.182;2023-05-12T02:55:23;97696.53;;;10.63;100.00
38852;BME280;24605;50.092;9.182;2023-05-12T02:57:50;97705.03;;;10.65;100.00
38852;BME280;24605;50.092;9.182;2023-05-12T03:00:16;97689.09;;;10.75;100.00
38852;BME280;24605;50.092;9.182;2023-05-12T03:02:43;97688.91;;;10.77;100.00
38852;BME280;24605;50.092;9.182;2023-05-12T03:05:09;97676.59;;;10.77;100.00
38852;BME280;24605;50.092;9.182;2023-05-12T03:07:36;97688.78;;;10.70;100.00
38852;BME280;24605;50.092;9.182;2023-05-12T03:10:05;97690.53;;;10.78;100.00
38852;BME280;24605;50.092;9.182;2023-05-12T03:12:32;97689.69;;;10.77;100.00
38852;BME280;24605;50.092;9.182;2023-05-12T03:14:58;97692.25;;;10.62;100.00
38852;BME280;24605;50.092;9.182;2023-05-12T03:17:24;97686.22;;;10.62;100.00
38852;BME280;24605;50.092;9.182;2023-05-12T03:19:51;97683.47;;;10.78;100.00
38852;BME280;24605;50.092;9.182;2023-05-12T03:22:17;97684.28;;;10.79;100.00
38852;BME280;24605;50.092;9.182;2023-05-12T03:24:44;97695.97;;;10.91;100.00
38852;BME280;24605;50.092;9.182;2023-05-12T03:27:12;97701.09;;;10.85;100.00
38852;BME280;24605;50.092;9.182;2023-05-12T03:29:38;97699.56;;;10.75;100.00
38852;BME280;24605;50.092;9.182;2023-05-12T03:32:05;97695.13;;;10.76;100.00
38852;BME280;24605;50.092;9.182;2023-05-12T03:34:32;97697.09;;;10.74;100.00
38852;BME280;24605;50.092;9.182;2023-05-12T03:36:59;97698.84;;;10.81;100.00
38852;BME280;24605;50.092;9.182;2023-05-12T03:39:26;97697.28;;;10.72;100.00
38852;BME280;24605;50.092;9.182;2023-05-12T03:41:52;97693.44;;;10.83;100.00
38852;BME280;24605;50.092;9.182;2023-05-12T03:44:20;97700.69;;;10.96;100.00
38852;BME280;24605;50.092;9.182;2023-05-12T03:46:46;97694.72;;;11.02;100.00
38852;BME280;24605;50.092;9.182;2023-05-12T03:49:12;97697.19;;;11.04;100.00
38852;BME280;24605;50.092;9.182;2023-05-12T03:51:39;97697.84;;;11.06;100.00
38852;BME280;24605;50.092;9.182;2023-05-12T03:54:05;97695.81;;;10.93;100.00
38852;BME280;24605;50.092;9.182;2023-05-12T03:56:32;97693.81;;;10.95;100.00
38852;BME280;24605;50.092;9.182;2023-05-12T03:58:58;97692.81;;;10.96;100.00
38852;BME280;24605;50.092;9.182;2023-05-12T04:01:26;97691.38;;;10.93;100.00
38852;BME280;24605;50.092;9.182;2023-05-12T04:03:53;97699.00;;;10.80;100.00
38852;BME280;24605;50.092;9.182;2023-05-12T04:06:19;97697.75;;;10.76;100.00
38852;BME280;24605;50.092;9.182;2023-05-12T04:08:45;97689.16;;;10.82;100.00
38852;BME280;24605;50.092;9.182;2023-05-12T04:11:12;97693.31;;;10.76;100.00
38852;BME280;24605;50.092;9.182;2023-05-12T04:13:39;97687.94;;;10.93;100.00
38852;BME280;24605;50.092;9.182;2023-05-12T04:16:05;97695.59;;;10.79;100.00
38852;BME280;24605;50.092;9.182;2023-05-12T04:18:33;97696.94;;;10.52;100.00
38852;BME280;24605;50.092;9.182;2023-05-12T04:21:00;97695.19;;;10.68;100.00
38852;BME280;24605;50.092;9.182;2023-05-12T04:23:27;97703.53;;;10.71;100.00
38852;BME280;24605;50.092;9.182;2023-05-12T04:25:54;97706.78;;;10.73;100.00
38852;BME280;24605;50.092;9.182;2023-05-12T04:28:20;97711.03;;;10.51;100.00
38852;BME280;24605;50.092;9.182;2023-05-12T04:30:47;97706.19;;;10.63;100.00
38852;BME280;24605;50.092;9.182;2023-05-12T04:33:13;97704.25;;;10.80;100.00
38852;BME280;24605;50.092;9.182;2023-05-12T04:35:41;97714.53;;;10.90;100.00
38852;BME280;24605;50.092;9.182;2023-05-12T04:38:07;97721.22;;;10.92;100.00
38852;BME280;24605;50.092;9.182;2023-05-12T04:40:34;97718.72;;;10.76;100.00
38852;BME280;24605;50.092;9.182;2023-05-12T04:43:00;97725.94;;;10.97;100.00
38852;BME280;24605;50.092;9.182;2023-05-12T04:45:27;97725.66;;;10.92;100.00
38852;BME280;24605;50.092;9.182;2023-05-12T04:47:53;97731.78;;;10.84;100.00
38852;BME280;24605;50.092;9.182;2023-05-12T04:50:20;97739.19;;;10.80;100.00
38852;BME280;24605;50.092;9.182;2023-05-12T04:52:48;97729.94;;;10.85;100.00
38852;BME280;24605;50.092;9.182;2023-05-12T04:55:14;97723.91;;;10.84;100.00
38852;BME280;24605;50.092;9.182;2023-05-12T04:57:41;97730.53;;;10.95;100.00
38852;BME280;24605;50.092;9.182;2023-05-12T05:00:08;97736.69;;;11.02;100.00
38852;BME280;24605;50.092;9.182;2023-05-12T05:02:35;97740.59;;;11.06;100.00
38852;BME280;24605;50.092;9.182;2023-05-12T05:05:02;97737.66;;;11.09;100.00
38852;BME280;24605;50.092;9.182;2023-05-12T05:07:29;97741.19;;;11.17;100.00
38852;BME280;24605;50.092;9.182;2023-05-12T05:09:56;97748.28;;;11.08;100.00
38852;BME280;24605;50.092;9.182;2023-05-12T05:12:26;97718.84;;;10.82;100.00
38852;BME280;24605;50.092;9.182;2023-05-12T05:14:52;97745.06;;;11.06;100.00
38852;BME280;24605;50.092;9.182;2023-05-12T05:17:19;97747.69;;;11.21;100.00
38852;BME280;24605;50.092;9.182;2023-05-12T05:19:45;97751.09;;;11.06;100.00
38852;BME280;24605;50.092;9.182;2023-05-12T05:22:12;97759.31;;;11.03;100.00
38852;BME280;24605;50.092;9.182;2023-05-12T05:24:39;97760.78;;;11.06;100.00
38852;BME280;24605;50.092;9.182;2023-05-12T05:27:06;97751.31;;;11.20;100.00
38852;BME280;24605;50.092;9.182;2023-05-12T05:29:33;97757.34;;;10.82;100.00
38852;BME280;24605;50.092;9.182;2023-05-12T05:31:59;97752.56;;;11.09;100.00
38852;BME280;24605;50.092;9.182;2023-05-12T05:34:26;97756.97;;;11.32;100.00
38852;BME280;24605;50.092;9.182;2023-05-12T05:36:52;97758.75;;;11.31;100.00
38852;BME280;24605;50.092;9.182;2023-05-12T05:39:19;97762.75;;;11.42;100.00
38852;BME280;24605;50.092;9.182;2023-05-12T05:41:45;97761.22;;;11.48;100.00
38852;BME280;24605;50.092;9.182;2023-05-12T05:44:13;97769.84;;;11.56;100.00
38852;BME280;24605;50.092;9.182;2023-05-12T05:46:39;97767.19;;;11.41;100.00
38852;BME280;24605;50.092;9.182;2023-05-12T05:49:06;97746.66;;;11.60;100.00
38852;BME280;24605;50.092;9.182;2023-05-12T05:51:32;97766.94;;;11.81;100.00
38852;BME280;24605;50.092;9.182;2023-05-12T05:53:59;97755.16;;;11.92;100.00
38852;BME280;24605;50.092;9.182;2023-05-12T05:56:25;97767.97;;;12.10;100.00
38852;BME280;24605;50.092;9.182;2023-05-12T05:58:51;97748.75;;;11.80;100.00
38852;BME280;24605;50.092;9.182;2023-05-12T06:01:19;97767.44;;;12.15;100.00
38852;BME280;24605;50.092;9.182;2023-05-12T06:03:46;97773.56;;;11.92;100.00
38852;BME280;24605;50.092;9.182;2023-05-12T06:06:12;97772.34;;;12.03;100.00
38852;BME280;24605;50.092;9.182;2023-05-12T06:08:38;97785.88;;;11.76;100.00
38852;BME280;24605;50.092;9.182;2023-05-12T06:11:05;97784.09;;;12.22;100.00
38852;BME280;24605;50.092;9.182;2023-05-12T06:13:31;97793.03;;;12.43;100.00
38852;BME280;24605;50.092;9.182;2023-05-12T06:15:58;97783.72;;;11.95;100.00
38852;BME280;24605;50.092;9.182;2023-05-12T06:18:26;97787.97;;;11.96;100.00
38852;BME280;24605;50.092;9.182;2023-05-12T06:20:52;97792.31;;;12.34;100.00
38852;BME280;24605;50.092;9.182;2023-05-12T06:23:18;97791.97;;;12.07;100.00
38852;BME280;24605;50.092;9.182;2023-05-12T06:25:47;97784.97;;;12.29;100.00
38852;BME280;24605;50.092;9.182;2023-05-12T06:28:13;97794.72;;;12.50;100.00
38852;BME280;24605;50.092;9.182;2023-05-12T06:30:40;97798.56;;;12.69;100.00
38852;BME280;24605;50.092;9.182;2023-05-12T06:33:06;97795.88;;;12.84;100.00
38852;BME280;24605;50.092;9.182;2023-05-12T06:35:34;97803.75;;;12.78;100.00
38852;BME280;24605;50.092;9.182;2023-05-12T06:38:00;97809.09;;;12.69;100.00
38852;BME280;24605;50.092;9.182;2023-05-12T06:40:27;97806.84;;;12.88;100.00
38852;BME280;24605;50.092;9.182;2023-05-12T06:42:53;97811.44;;;12.43;100.00
38852;BME280;24605;50.092;9.182;2023-05-12T06:45:20;97806.94;;;12.73;100.00
38852;BME280;24605;50.092;9.182;2023-05-12T06:47:47;97808.59;;;12.81;100.00
38852;BME280;24605;50.092;9.182;2023-05-12T06:50:14;97813.28;;;12.64;100.00
38852;BME280;24605;50.092;9.182;2023-05-12T06:52:42;97813.06;;;12.80;100.00
38852;BME280;24605;50.092;9.182;2023-05-12T06:55:09;97819.41;;;12.86;100.00
38852;BME280;24605;50.092;9.182;2023-05-12T06:57:36;97817.50;;;12.80;100.00
38852;BME280;24605;50.092;9.182;2023-05-12T07:00:02;97797.31;;;12.65;100.00
38852;BME280;24605;50.092;9.182;2023-05-12T07:02:29;97809.00;;;12.99;100.00
38852;BME280;24605;50.092;9.182;2023-05-12T07:04:56;97807.41;;;12.83;100.00
38852;BME280;24605;50.092;9.182;2023-05-12T07:07:22;97813.28;;;12.64;100.00
38852;BME280;24605;50.092;9.182;2023-05-12T07:09:50;97819.13;;;12.81;100.00
38852;BME280;24605;50.092;9.182;2023-05-12T07:12:16;97814.69;;;12.45;100.00
38852;BME280;24605;50.092;9.182;2023-05-12T07:14:43;97820.81;;;12.52;100.00
38852;BME280;24605;50.092;9.182;2023-05-12T07:17:09;97817.13;;;12.83;100.00
38852;BME280;24605;50.092;9.182;2023-05-12T07:19:36;97808.63;;;13.03;100.00
38852;BME280;24605;50.092;9.182;2023-05-12T07:22:03;97818.84;;;12.91;100.00
38852;BME280;24605;50.092;9.182;2023-05-12T07:24:30;97806.16;;;13.01;100.00
38852;BME280;24605;50.092;9.182;2023-05-12T07:26:58;97814.13;;;13.08;100.00
38852;BME280;24605;50.092;9.182;2023-05-12T07:29:24;97812.56;;;13.35;100.00
38852;BME280;24605;50.092;9.182;2023-05-12T07:31:51;97815.59;;;13.60;100.00
38852;BME280;24605;50.092;9.182;2023-05-12T07:34:17;97819.25;;;13.38;100.00
38852;BME280;24605;50.092;9.182;2023-05-12T07:36:44;97816.81;;;13.36;100.00
38852;BME280;24605;50.092;9.182;2023-05-12T07:39:10;97819.38;;;13.51;100.00
38852;BME280;24605;50.092;9.182;2023-05-12T07:41:37;97822.75;;;13.67;100.00
38852;BME280;24605;50.092;9.182;2023-05-12T07:44:05;97797.03;;;13.40;100.00
38852;BME280;24605;50.092;9.182;2023-05-12T07:46:32;97819.00;;;13.83;100.00
38852;BME280;24605;50.092;9.182;2023-05-12T07:48:58;97816.63;;;13.94;100.00
38852;BME280;24605;50.092;9.182;2023-05-12T07:51:25;97818.13;;;14.04;100.00
38852;BME280;24605;50.092;9.182;2023-05-12T07:53:51;97812.38;;;14.35;100.00
38852;BME280;24605;50.092;9.182;2023-05-12T07:56:19;97814.16;;;14.77;100.00
38852;BME280;24605;50.092;9.182;2023-05-12T07:58:45;97815.22;;;14.82;100.00
38852;BME280;24605;50.092;9.182;2023-05-12T08:01:13;97818.44;;;14.71;100.00
38852;BME280;24605;50.092;9.182;2023-05-12T08:03:40;97814.97;;;14.70;100.00
38852;BME280;24605;50.092;9.182;2023-05-12T08:06:06;97814.59;;;14.73;100.00
38852;BME280;24605;50.092;9.182;2023-05-12T08:08:32;97811.88;;;14.53;100.00
38852;BME280;24605;50.092;9.182;2023-05-12T08:11:00;97810.59;;;15.11;100.00
38852;BME280;24605;50.092;9.182;2023-05-12T08:13:27;97809.78;;;15.24;100.00
38852;BME280;24605;50.092;9.182;2023-05-12T08:15:53;97813.88;;;15.20;100.00
38852;BME280;24605;50.092;9.182;2023-05-12T08:18:21;97806.50;;;15.82;100.00
38852;BME280;24605;50.092;9.182;2023-05-12T08:20:48;97805.50;;;15.77;100.00
38852;BME280;24605;50.092;9.182;2023-05-12T08:23:15;97793.28;;;15.96;100.00
38852;BME280;24605;50.092;9.182;2023-05-12T08:25:42;97805.25;;;16.12;96.95
38852;BME280;24605;50.092;9.182;2023-05-12T08:28:08;97807.56;;;16.47;97.33
38852;BME280;24605;50.092;9.182;2023-05-12T08:30:35;97803.53;;;16.38;97.18
38852;BME280;24605;50.092;9.182;2023-05-12T08:33:03;97816.22;;;16.68;95.18
38852;BME280;24605;50.092;9.182;2023-05-12T08:35:31;97806.34;;;15.77;94.41
38852;BME280;24605;50.092;9.182;2023-05-12T08:37:57;97807.31;;;16.03;94.92
38852;BME280;24605;50.092;9.182;2023-05-12T08:40:28;97813.84;;;15.94;92.70
38852;BME280;24605;50.092;9.182;2023-05-12T08:43:14;97813.66;;;15.35;96.22
38852;BME280;24605;50.092;9.182;2023-05-12T08:45:43;97817.91;;;15.56;95.85
38852;BME280;24605;50.092;9.182;2023-05-12T08:48:11;97810.00;;;15.36;95.83
38852;BME280;24605;50.092;9.182;2023-05-12T08:50:41;97811.63;;;15.24;95.79
38852;BME280;24605;50.092;9.182;2023-05-12T08:53:10;97822.97;;;15.04;98.36
38852;BME280;24605;50.092;9.182;2023-05-12T08:55:38;97816.88;;;14.97;98.46
38852;BME280;24605;50.092;9.182;2023-05-12T08:58:06;97820.34;;;15.44;97.43
38852;BME280;24605;50.092;9.182;2023-05-12T09:00:34;97814.06;;;15.45;96.67
38852;BME280;24605;50.092;9.182;2023-05-12T09:03:04;97817.31;;;15.07;99.01
38852;BME280;24605;50.092;9.182;2023-05-12T09:05:32;97820.56;;;15.63;97.01
38852;BME280;24605;50.092;9.182;2023-05-12T09:08:00;97830.00;;;16.31;96.63
38852;BME280;24605;50.092;9.182;2023-05-12T09:10:27;97829.94;;;15.59;95.84
38852;BME280;24605;50.092;9.182;2023-05-12T09:12:59;97822.19;;;15.71;94.71
38852;BME280;24605;50.092;9.182;2023-05-12T09:15:34;97828.09;;;15.66;96.80
38852;BME280;24605;50.092;9.182;2023-05-12T09:18:01;97826.16;;;16.27;94.17
38852;BME280;24605;50.092;9.182;2023-05-12T09:20:28;97827.78;;;16.35;91.77
38852;BME280;24605;50.092;9.182;2023-05-12T09:22:54;97822.25;;;16.43;88.31
38852;BME280;24605;50.092;9.182;2023-05-12T09:25:23;97817.50;;;15.79;91.79
38852;BME280;24605;50.092;9.182;2023-05-12T09:27:54;97829.84;;;16.19;90.24
38852;BME280;24605;50.092;9.182;2023-05-12T09:30:28;97833.88;;;16.35;90.29
38852;BME280;24605;50.092;9.182;2023-05-12T09:33:04;97830.22;;;16.23;90.63
38852;BME280;24605;50.092;9.182;2023-05-12T09:35:36;97832.25;;;16.34;91.04
38852;BME280;24605;50.092;9.182;2023-05-12T09:38:07;97838.84;;;16.11;92.62
38852;BME280;24605;50.092;9.182;2023-05-12T09:40:36;97794.53;;;15.73;92.44
38852;BME280;24605;50.092;9.182;2023-05-12T09:43:02;97839.84;;;16.17;92.32
38852;BME280;24605;50.092;9.182;2023-05-12T09:45:32;97835.69;;;16.80;91.10
38852;BME280;24605;50.092;9.182;2023-05-12T09:48:06;97836.34;;;16.75;90.46
38852;BME280;24605;50.092;9.182;2023-05-12T09:50:33;97833.25;;;16.40;91.76
38852;BME280;24605;50.092;9.182;2023-05-12T09:53:00;97841.56;;;16.96;91.16
38852;BME280;24605;50.092;9.182;2023-05-12T09:55:27;97849.53;;;16.82;91.55
38852;BME280;24605;50.092;9.182;2023-05-12T09:57:56;97848.63;;;17.09;92.85
38852;BME280;24605;50.092;9.182;2023-05-12T10:00:24;97857.94;;;17.18;88.26
38852;BME280;24605;50.092;9.182;2023-05-12T10:02:50;97843.56;;;16.55;92.77
38852;BME280;24605;50.092;9.182;2023-05-12T10:05:19;97844.50;;;16.22;96.01
38852;BME280;24605;50.092;9.182;2023-05-12T10:07:47;97845.00;;;16.44;94.98
38852;BME280;24605;50.092;9.182;2023-05-12T10:10:17;97825.94;;;16.81;92.24
38852;BME280;24605;50.092;9.182;2023-05-12T10:12:44;97855.41;;;17.30;88.76
38852;BME280;24605;50.092;9.182;2023-05-12T10:15:13;97850.63;;;17.70;87.58
38852;BME280;24605;50.092;9.182;2023-05-12T10:17:39;97855.22;;;17.57;86.07
38852;BME280;24605;50.092;9.182;2023-05-12T10:20:07;97845.25;;;16.95;88.67
38852;BME280;24605;50.092;9.182;2023-05-12T10:22:37;97851.91;;;17.04;88.33
38852;BME280;24605;50.092;9.182;2023-05-12T10:25:05;97837.25;;;17.01;87.57
38852;BME280;24605;50.092;9.182;2023-05-12T10:27:32;97845.25;;;16.88;88.67
38852;BME280;24605;50.092;9.182;2023-05-12T10:30:00;97844.19;;;16.50;88.83
38852;BME280;24605;50.092;9.182;2023-05-12T10:32:29;97830.63;;;16.33;93.11
38852;BME280;24605;50.092;9.182;2023-05-12T10:35:06;97846.69;;;16.32;92.97
38852;BME280;24605;50.092;9.182;2023-05-12T10:37:33;97839.19;;;16.81;90.28
38852;BME280;24605;50.092;9.182;2023-05-12T10:40:00;97848.69;;;16.95;88.50
38852;BME280;24605;50.092;9.182;2023-05-12T10:42:36;97847.03;;;16.55;88.69
38852;BME280;24605;50.092;9.182;2023-05-12T10:45:13;97830.13;;;16.56;89.46
38852;BME280;24605;50.092;9.182;2023-05-12T10:47:43;97832.91;;;16.16;88.47
38852;BME280;24605;50.092;9.182;2023-05-12T10:50:11;97851.97;;;16.84;86.93
38852;BME280;24605;50.092;9.182;2023-05-12T10:52:38;97846.47;;;16.40;88.22
38852;BME280;24605;50.092;9.182;2023-05-12T10:55:10;97856.56;;;15.97;91.07
38852;BME280;24605;50.092;9.182;2023-05-12T10:57:46;97845.75;;;16.12;92.38
38852;BME280;24605;50.092;9.182;2023-05-12T11:00:14;97833.41;;;16.52;92.33
38852;BME280;24605;50.092;9.182;2023-05-12T11:02:49;97850.00;;;16.79;92.04
38852;BME280;24605;50.092;9.182;2023-05-12T11:05:16;97844.75;;;16.59;92.42
38852;BME280;24605;50.092;9.182;2023-05-12T11:07:46;97850.03;;;16.66;92.27
38852;BME280;24605;50.092;9.182;2023-05-12T11:10:12;97858.38;;;16.69;91.64
38852;BME280;24605;50.092;9.182;2023-05-12T11:12:42;97828.84;;;16.13;92.09
38852;BME280;24605;50.092;9.182;2023-05-12T11:15:09;97860.06;;;17.02;88.44
38852;BME280;24605;50.092;9.182;2023-05-12T11:17:39;97862.50;;;16.58;89.34
38852;BME280;24605;50.092;9.182;2023-05-12T11:20:07;97860.63;;;16.59;85.80
38852;BME280;24605;50.092;9.182;2023-05-12T11:22:35;97852.22;;;16.23;88.01
38852;BME280;24605;50.092;9.182;2023-05-12T11:25:08;97864.69;;;17.14;84.67
38852;BME280;24605;50.092;9.182;2023-05-12T11:27:35;97870.19;;;17.44;83.60
38852;BME280;24605;50.092;9.182;2023-05-12T11:30:04;97870.31;;;18.07;81.56
38852;BME280;24605;50.092;9.182;2023-05-12T11:32:31;97871.16;;;18.44;78.30
38852;BME280;24605;50.092;9.182;2023-05-12T11:35:08;97875.63;;;18.07;76.82
38852;BME280;24605;50.092;9.182;2023-05-12T11:37:35;97869.38;;;18.20;71.34
38852;BME280;24605;50.092;9.182;2023-05-12T11:40:03;97874.97;;;18.11;73.56
38852;BME280;24605;50.092;9.182;2023-05-12T11:42:29;97862.03;;;19.20;67.84
38852;BME280;24605;50.092;9.182;2023-05-12T11:44:56;97874.31;;;19.02;66.23
38852;BME280;24605;50.092;9.182;2023-05-12T11:47:22;97871.94;;;19.67;62.67
38852;BME280;24605;50.092;9.182;2023-05-12T11:49:50;97863.09;;;19.31;63.01
38852;BME280;24605;50.092;9.182;2023-05-12T11:52:19;97871.34;;;19.10;61.67
38852;BME280;24605;50.092;9.182;2023-05-12T11:54:47;97869.13;;;18.77;62.87
38852;BME280;24605;50.092;9.182;2023-05-12T11:57:23;97872.59;;;18.59;64.12
38852;BME280;24605;50.092;9.182;2023-05-12T11:59:55;97872.91;;;17.63;64.80
38852;BME280;24605;50.092;9.182;2023-05-12T12:02:22;97871.50;;;18.67;62.13
38852;BME280;24605;50.092;9.182;2023-05-12T12:04:48;97865.91;;;18.56;62.33
38852;BME280;24605;50.092;9.182;2023-05-12T12:07:15;97859.53;;;18.76;61.62
38852;BME280;24605;50.092;9.182;2023-05-12T12:09:43;97871.91;;;19.01;61.52
38852;BME280;24605;50.092;9.182;2023-05-12T12:12:10;97880.00;;;18.87;64.02
38852;BME280;24605;50.092;9.182;2023-05-12T12:14:37;97874.88;;;18.92;63.93
38852;BME280;24605;50.092;9.182;2023-05-12T12:17:05;97880.69;;;18.83;63.25
38852;BME280;24605;50.092;9.182;2023-05-12T12:19:32;97880.91;;;19.42;62.36
38852;BME280;24605;50.092;9.182;2023-05-12T12:21:58;97883.38;;;19.44;61.75
38852;BME280;24605;50.092;9.182;2023-05-12T12:24:25;97892.50;;;19.60;61.41
38852;BME280;24605;50.092;9.182;2023-05-12T12:26:53;97893.97;;;19.01;63.39
38852;BME280;24605;50.092;9.182;2023-05-12T12:29:19;97889.16;;;18.91;64.56
38852;BME280;24605;50.092;9.182;2023-05-12T12:31:48;97889.03;;;18.86;64.63
38852;BME280;24605;50.092;9.182;2023-05-12T12:34:14;97874.47;;;18.58;66.50
38852;BME280;24605;50.092;9.182;2023-05-12T12:36:41;97887.97;;;18.87;66.51
38852;BME280;24605;50.092;9.182;2023-05-12T12:39:07;97888.53;;;19.38;64.75
38852;BME280;24605;50.092;9.182;2023-05-12T12:41:34;97889.84;;;19.48;65.53
38852;BME280;24605;50.092;9.182;2023-05-12T12:44:02;97886.03;;;18.64;67.98
38852;BME280;24605;50.092;9.182;2023-05-12T12:46:29;97873.19;;;18.61;66.84
38852;BME280;24605;50.092;9.182;2023-05-12T12:48:55;97874.88;;;18.92;65.99
38852;BME280;24605;50.092;9.182;2023-05-12T12:51:22;97872.34;;;19.40;63.14
38852;BME280;24605;50.092;9.182;2023-05-12T12:53:49;97878.09;;;19.79;62.24